MET: Información y Pronóstico Aeronáutico

///////////////////////////////////////////////////////////////////////////////////////////////////////////////////////////////////////////////////////////////////////////////////////////////////////////////////////////////////////////////

Member for

4 años 6 meses
Enviado por meteorologia el Jue, 10/06/2021 - 09:33
3/2

3 DE FEBRERO 2023

INFORMACION METEOROLOGICA AERONAUTICA (METAR) 18:00 UTC

Aeropuerto AEROPARQUE J. NEWBERY

03 - 18:00 METAR SABE 031800Z 10013KT CAVOK 25/18 Q1016 NOSIG RMK PP000 =

Aeropuerto BAHIA BLANCA

03 - 18:00 METAR SAZB 031800Z 15008KT 110V210 CAVOK 29/12 Q1019 RMK PP000 =

Aeropuerto BARILOCHE

03 - 18:00 METAR SAZS 031800Z VRB05KT CAVOK 31/M01 Q1020 RMK PP/// =

Aeropuerto CATAMARCA

03 - 18:00 METAR SANC 031800Z 23015KT 9999 SCT040 FEW050TCU 32/13 Q1015 =

Aeropuerto CHAPELCO

03 - 18:00 METAR SAZY 031800Z 12009KT CAVOK 30/09 Q1019 =

Aeropuerto COMODORO RIVADAVIA

03 - 18:00 METAR SAVC 031800Z 29009KT 260V340 CAVOK 33/03 Q1015 RMK PP000 =

Aeropuerto CORDOBA

03 - 18:00 METAR SACO 031800Z 13008KT 100V190 9999 BKN042TCU 25/16 Q1018 NOSIG RMK PP000 =

Aeropuerto CORRIENTES

03 - 18:00 METAR SARC 031800Z 16012KT 9999 BKN040TCU 33/16 Q1010 =

Aeropuerto EL CALAFATE

03 - 18:00 METAR SAWC 27020G34 9999 SCT050 24/08 Q1010 =

Aeropuerto EL PALOMAR

03 - 18:00 METAR SADP 031800Z 07008KT 9000 -RA BKN035 SCT045 26/18 Q1016 RMK PP/// =

Aeropuerto ESQUEL

03 - 17:00 METAR SAVE 031700Z 24010KT CAVOK 28/05 Q1022 =

Aeropuerto EZEIZA

03 - 18:00 METAR SAEZ 031800Z 14014KT 9999 SCT050 FEW060TCU 30/14 Q1015 TEMPO 8000 -RA FEW020 FEW040TCU RMK PP000 =

Aeropuerto FORMOSA

03 - 18:00 METAR SARF 031800Z 25008KT 9999 SCT030 SCT100 30/19 Q1010 =

Aeropuerto IGUAZU/CATARATAS

03 - 18:00 METAR SARI 031800Z VRB02KT 1500 TSRA BKN007 BKN049 FEW050CB 24/24 Q1009 RMK PP002 CB OBS TO N =

Aeropuerto JUJUY

03 - 18:00 METAR SASJ 031800Z VRB04KT 9999 FEW040TCU 28/16 Q1018 RMK PP000 =

Aeropuerto LA RIOJA

03 - 18:00 METAR SANL 031800Z 00000KT 9999 FEW050 SCT056TCU BKN100 30/20 Q1016 =

Aeropuerto MALARGUE

03 - 18:00 METAR SAMM 031800Z 05005KT 9999 BKN030TCU 26/09 Q1023 =

Aeropuerto MAR DEL PLATA

03 - 18:00 METAR SAZM 031800Z 14015KT 100V160 9999 SCT033 23/14 Q1019 RMK PP/// =

Aeropuerto MENDOZA

03 - 18:00 METAR SAME 031800Z 11005KT CAVOK 29/12 Q1019 =

Aeropuerto MORON

03 - 18:00 METAR SADM 031800Z 14009KT CAVOK 28/15 Q1015 =

Aeropuerto NEUQUEN

03 - 18:00 METAR SAZN 031800Z 09010KT 9999 FEW035 33/12 Q1018 =

Aeropuerto PARANA

03 - 18:00 METAR SAAP 031800Z 16015KT 9999 BKN025TCU 29/17 Q1015 =

Aeropuerto POSADAS

03 - 18:00 METAR SARP 031800Z 18009KT 9999 SCT030 SCT200 31/22 Q1009 =

Aeropuerto PUERTO MADRYN

03 - 18:00 METAR SAVY 031800Z 07012KT CAVOK 29/16 Q1017 =

Aeropuerto RECONQUISTA

03 - 18:00 METAR SATR 031800Z 18014KT 9999 SCT025 31/18 Q1011 =

Aeropuerto RESISTENCIA

03 - 18:00 METAR SARE 031800Z 17012KT 140V200 CAVOK 31/16 Q1010 RMK PP/// =

Aeropuerto RIO CUARTO

03 - 18:00 METAR SAOC 031800Z 14010KT 9999 FEW035TCU 27/14 Q1019 RMK TCU OBS TO E =

Aeropuerto RIO GALLEGOS

03 - 18:00 SAWG 031800Z 25026G36KT 9999 FEW025 BKN030 26/05 Q1005 =

Aeropuerto RIO GRANDE

03 - 18:00 METAR SAWE 031800Z 29034G44KT 6000 BLDU NSC 24/08 Q1000 RMK PP000 =

Aeropuerto ROSARIO

03 - 18:00 METAR SAAR 031800Z 16013KT 9999 BKN050TCU 28/17 Q1015 RMK PP000 =

Aeropuerto SALTA

03 - 18:00 METAR SASA 031800Z VRB03KT 9999 SCT040 26/16 Q1020 RMK PP000 =

Aeropuerto SAN FERNANDO

03 - 18:00 METAR SADF 031800Z 10010KT CAVOK 25/19 Q1015 RMK PP999 =

Aeropuerto SAN JUAN

03 - 16:00 METAR SANU 031600Z 20013KT 9999 FEW040 SCT060 29/15 Q1020 =

Aeropuerto SAN LUIS

03 - 18:00 METAR SAOU 031800Z 09012KT 9999 SCT040 29/13 Q1019 =

Aeropuerto SAN RAFAEL

03 - 18:00 METAR SAMR 031800Z 05008KT CAVOK 30/12 Q1020 =

Aeropuerto SANTA ROSA

03 - 18:00 METAR SAZR 031800Z 16004KT 9999 SCT035 30/14 Q1018 =

Aeropuerto SANTIAGO DEL ESTERO

03 - 18:00 METAR SANE 031800Z 18004KT 9999 BKN030 30/21 Q1014 =

Aeropuerto SAUCE VIEJO

03 - 18:00 METAR SAAV 031800Z 20013KT 9999 BKN043 29/16 Q1014 RMK PP///

Aeropuerto TANDIL

03 - 18:00 METAR SAZT 031800Z 12009KT 9999 BKN040 24/13 Q1019 =

Aeropuerto TERMAS DE RIO HONDO

03 - 17:00 METAR SANR 311700Z 23004KT 9999 SCT035 29/20 Q1016 =

Aeropuerto TRELEW

03 - 18:00 METAR SAVT 031800Z VRB11KT CAVOK 35/05 Q1016 RMK PP000 =

Aeropuerto TUCUMAN

03 - 18:00 METAR SANT 031800Z 16005KT 110V220 9999 BKN040 28/19 Q1016 RMK PP000 =

Aeropuerto USHUAIA

03 - 18:00 METAR SAWH 031800Z 24019KT 9999 -RA BKN035 BKN050 13/11 Q0998 RMK PP999 =

Aeropuerto VIEDMA

03 - 18:00 METAR SAVV 031800Z VRB07KT 9999 FEW025 FEW027TCU 31/14 Q1018 =

Aeropuerto VILLA REYNOLDS

03 - 18:00 METAR SAOR 031800Z 11009KT 9999 SCT030 26/15 Q1020 =

 PRONOSTICO DE AERODROMO (TAF) 17:00 UTC

Estación AEROPARQUE J. NEWBERY

03 - 17:00 TAF SABE 031700Z 0318/0418 11015KT 9999 BKN045 FEW050TCU TX26/0418Z TN18/0409Z TEMPO 0318/0321 11015G25KT 5000 SHRA BECMG 0319/0321 11015G25KT BECMG 0401/0403 16015KT 9999 SCT020 =

Estación BAHIA BLANCA

03 - 17:00 TAF SAZB 031700Z 0318/0418 18007KT CAVOK TX31/0418Z TN15/0409Z BECMG 0318/0321 16010G20KT BECMG 0400/0403 07005KT BECMG 0409/0412 VRB03KT BECMG 0415/0418 16007KT =

Estación BARILOCHE

03 - 17:00 TAF SAZS 031700Z 0318/0418 VRB05KT CAVOK TX33/0418Z TN10/0410Z BECMG 0416/0418 29015KT =

Estación CATAMARCA

03 - 17:00 TAF SANC 031700Z 0318/0418 23010KT 9999 SCT030 FEW050TCU TX33/0418Z TN20/0410Z FM 031800 02010KT 9999 BKN040 FEW050TU =

Estación CHAPELCO

03 - 17:00 TAF SAZY 031700Z 0318/0418 09010KT CAVOK TX33/0418Z TN14/0409Z BECMG 0400/0403 20005KT BECMG 0409/0412 VRB03KT BECMG 0415/0418 07015G25KT =

Estación COMODORO RIVADAVIA

03 - 17:00 TAF SAVC 031700Z 0318/0418 09010KT CAVOK TX33/0418Z TN20/0411Z BECMG 0315/0317 VRB05KT =

Estación CORDOBA

03 - 17:00 TAF SACO 031700Z 0318/0418 14010KT 9999 SCT040 FEW050TCU TX30/0418Z TN18/0410Z FM040000 24005KT 9999 FEW045 =

Estación CORRIENTES

03 - 17:00 TAF SARC 031700Z 0318/0418 16010KT 9999 BKN035 TX31/0318Z TN24/0409Z BECMG 0321/0323 CAVOK BECMG 0415/0417 9999 SCT035 =

Estación EL CALAFATE

03 - 17:00 TAF SAWC 031700Z 0318/0418 27015KT CAVOK TX24/0418Z TN09/0410Z =

Estación EL PALOMAR

03 - 17:00 TAF SADP 031700Z 0318/0418 16010KT 9999 BKN035 TX29/0418Z TN17/0409Z TEMPO 0318/0324 15015G25KT 8000 -SHRA FEW050TCU BECMG 0400/0403 16005KT CAVOK PROB30 TEMPO 0406/0410 3000 BR NSC BECMG 0410/0413 18010KT 9999 FEW020 =

Estación ESQUEL

03 - 17:00 TAF SAVE 031700Z 0318/0418 23005KT CAVOK TX35/0418Z TN11/0410Z =

Estación EZEIZA

03 - 17:00 TAF SAEZ 031700Z 0318/0418 16010KT 9999 SCT050 TX30/0418Z TN16/0409Z TEMPO 0318/0321 16010G25KT 8000 -SHRA FEW050TCU BECMG 0400/0403 18005KT CAVOK PROB30 TEMPO 0406/0410 3000 BR NSC BECMG 0410/0413 18010KT 9999 FEW020 =

Estación FORMOSA

03 - 17:00 TAF SARF 031700Z 0318/0418 20010KT 9999 SCT030 BKN100 TX31/3018Z TN24/0409Z BECMG 0321/0323 CAVOK BECMG 0415/0417 9999 SCT035 =

Estación IGUAZU/CATARATAS

03 - 17:00 TAF SARI 031700Z 0318/0418 VRB03KT 4000 -TSRA BKN005 BKN040 FEW045CB TX25/0318Z TN19/0410Z BECMG 0319/0321 9999 BKN020 BKN100 BECMG 0323/0401 23005KT CAVOK PROB30 0409/0412 0800 FG BECMG 0415/0417 05010KT SCT025 FEW045TCU =

Estación JUJUY

03 - 17:00 TAF SASJ 031700Z 03182/0418 VRB03KT 9999 SCT030 TX18/0418Z TN16/0410Z FM40000 27003KT 5000 TS RA SCT015 BKN045 FEW045CB =

Estación LA RIOJA

03 - 17:00 TAF SANL 031700Z 0318/0418 16003KT 9999 SCT040 FEW050TCU TX33/0418Z TN20/0410Z PROB30 TEMPO 0400/0403 230KT 7000 -TS SHRA FM040400 23005KT 9999 SCT040 =

Estación MAR DEL PLATA

03 - 17:00 TAF SAZM 031700Z 0318/0418 13015KT 9999 SCT035 TX24/0318Z TN17/0409Z BECMG 0323/0401 15005KT 9999 BKN015 BECMG 0411/0413 16015KT 9999 SCT030 =

Estación MENDOZA

03 - 17:00 TAF SAME 031700Z 0318/0418 03007KT 9999 FEW040 TX30/0319Z TN18/0409Z =

Estación NEUQUEN

03 - 17:00 TAF SAZN 031700Z 0318/0418 04010KT CAVOK TX36/0418Z TN20/0410Z BECMG 0406/0408 09005KT =

Estación PARANA

03 - 17:00 TAF SAAP 031700Z 0318/0418 16015KT 9999 SCT020 BKN030 TX31/0418Z TN17/0409Z BECMG 0321/0324 16005KT CAVOK BECMG 0409/0412 18010KT 9999 FEW010 FEW020 BECMG 0415/0418 FEW020 =

Estación POSADAS

03 - 17:00 TAF SARP 031700Z 0318/0418 20010KT 9999 BKN020 BKN100 TX30/0318Z TN24/0409Z BECMG 0323/0401 CAVOK BECMG 0415/0417 09010KT 9999 SCT035 =

Estación RESISTENCIA

03 - 17:00 TAF SARE 031700Z 0318/0418 16010KT 9999 BKN040 TX31/0318Z TN24/0409Z BECMG 0321/0323 CAVOK BECMG 0415/0417 9999 SCT035 =

Estación RIO CUARTO

03 - 17:00 TAF SAOC 031700Z 0318/0418 11005KT 9999 SCT035 TX31/0419Z TN17/0410Z BCMG 0401/0404 32003KT 9999 FEW045 =

Estación RIO GALLEGOS

03 - 17:00 TAF SAWG 031700Z 0318/0418 29015KT 9999 SCT035 TX28/0318Z TN10/0410Z BECMG 0319/0321 23025G35KT BECMG 0408/0410 36015KT =

Estación RIO GRANDE

03 - 17:00 TAF SAWE 031700Z 0318/0418 30030G40KT 3000 BLDU BKN035 TX22/0318Z TN10/0311Z BECMG 0320/0322 27030G48KT =

Estación ROSARIO

03 - 17:00 TAF SAAR 031700Z 0318/0418 16010G20KT 9999 SCT035 TX31/0418Z TN18/0409Z TEMPO 0318/0321 7000 -SHRA BKN035 FEW040TCU BECMG 0401/0403 14010KT =

Estación SALTA

03 - 17:00 TAF SASA 031700Z 0318/0418 14005KT 9999 SCT030 FEW050TCU TX20/0418Z TN14/0410Z BECMG 0322/0402 27003KT 9999 BKN030 FEW050CB FM040900 27003KT 6000 TS RA BKN025 SCT045 FEW045CB =

Estación SAN FERNANDO

03 - 17:00 TAF SADF 031700Z 0318/0418 09015KT 9999 FEW030 BKN040 TX27/0418Z TN18/0409Z BECMG 0321/0323 14010KT BKN018 BECMG 0401/0404 18010KT FEW015 TEMPO 0412/0416 BKN028 =

Estación SAN JUAN

03 - 17:00 TAF SANU 031700Z 0318/0418 18017KT 9999 FEW040 TX33/0320Z TN21/0410Z BECMG 0322/0401 18008KT BECMG 0405/0406 20015KT BECMG 0413/0418 18010KT =

Estación SAN LUIS

03 - 17:00 TAF SAOU 031700Z 0318/0418 11012KT 9999 SCT040 TX31/0319Z TN16/0409Z BECMG 0409/0411 07005KT CAVOK =

Estación SAN RAFAEL

03 - 17:00 TAF SAMR 031700Z 0318/0418 05008KT CAVOK TX31/0320Z TN18/0410Z BECMG 0401/0403 25005KT =

Estación SANTA ROSA

03 - 17:00 TAF SAZR 031700Z 0318/0418 18005KT 9999 SCT035 TX32/0418Z TN17/0409Z BECMG 0400/0403 VRB03KT BECMG 0409/0412 27005KT CAVOK =

Estación SANTIAGO DEL ESTERO

03 - 17:00 TAF SANE 031700Z 0318/0418 1605KT 9999 BKN030 TX33/0419Z TN20/0410Z FM040300 17005KT 9999 SCT050 =

Estación SAUCE VIEJO

03 - 17:00 TAF SAAV 031700Z 0318/0418 18010G20KT 9999 BKN040 TX32/0418Z TN17/0409Z BECMG 0320/0323 18005KT CAVOK BECMG 0409/0412 18010KT 9999 FEW020 =

Estación TERMAS DE RIO HONDO

03 - 17:00 TAF SANR 031700Z 0318/0418 23005KT 9999 FEW045 =

Estación TRELEW

03 - 17:00 TAF SAVT 031700Z 0318/0418 VRB03KT CAVOK TX35/0320Z TN14/0410Z BECMG 0320/0322 36015KT =

Estación TUCUMAN

03 - 17:00 TAF SANT 031700Z 0318/0418 VRB03KT 9999 SCT030 FEW050TCU TX29/0418Z TN17/0410Z FM032100 VRB03KT 7000 TS RA FEW015 BKN040 FEW050CB =

Estación USHUAIA

03 - 17:00 TAF SAWH 031700Z 0318/0418 32015KT 9999 DZ SCT035 BKN060 TX21/0315Z TN04/0410Z TEMPO 0318/0321 8000 SHRA BKN020 SCT030TCU OVC045 BECMG 0321/0323 9999 NSW SCT030 =

Estación VIEDMA

03 - 17:00 TAF SAVV 031700Z 0318/0418 VRB05KT TX33/0318Z TN18/0309Z BECMG 0319/0321 02010KT =